HARTSFIELD - JACKSON ATLANTA INTL

KATL (ATL)
Atlanta, Georgia
Towered

Vatsim Metar:
KATL 140352Z 00000KT 10SM SCT050 SCT060 BKN250 26/20 A2994 RMK AO2 SLP126 T02610200

HARTSFIELD - JACKSON ATLANTA INTL ATC

ATL_2_CTR - 132.970 - Daniel Wilbanks
Host of The Late Show with Atlanta Center. Show your support! Add #LateShowATL to your FPL remarks. Feedback https //www.ztlartcc.org/feedback/new

Traffic

Inbound:
Ident
Type
Name
ETA
Phase
T157
TBM9
Jayden Tanner KLAX
04:41 Z
Taxiing In
DAL215
A333
Alex Romano KSAN
Deplaning
JBU4692
A20N
Charlie Stevens KSEA
04:41 Z
Descent
DAL45
B738
Bryan Cuevas KMEM
04:47 Z
Descent
DAL917
A333
Samuel Ferreira SBRF
04:59 Z
Cruse
NKS503
A320
Gene Pence KMFD
05:12 Z
Cruse
DAL1866
B763
Marc Neal PHNL
05:52 Z
Cruse
DAL2520
B738
nick campo
06:33 Z
Cruse
FDX137
B748
Arty Mikhaylov UUEE
10:42 Z
Cruse

Outbound:
Ident
Type
Name
Destination
Phase
DAL2760
A320
Jack Murphy KRYY
KMCO
Boarding
DAL1418
E170
Charlie Yonkura
KMCO
Boarding
UAL1549
A20N
Robert Summons KLAX
KCLT
Boarding
AFR430
B77W
Joseph Remer CYUL
LLBG
Boarding